Time;durP1;ratioP1;P1;durP2;ratioP2;P2;SDS_P1;SDS_P2;PMS_P1;PMS_P2;Temp;Humidity;BMP_temperature;BMP_pressure;BME280_temperature;BME280_humidity;BME280_pressure;Samples;Min_cycle;Max_cycle;Signal;HPM_P1;HPM_P2
2023/06/08 00:02:13;;;;;;;9.25;3.83;;;;;;;;;;5072820;27;95036;-76
2023/06/08 00:04:40;;;;;;;9.77;3.47;;;;;;;;;;5081485;27;91825;-76
2023/06/08 00:07:14;;;;;;;8.23;3.58;;;;;;;;;;5068701;27;92280;-75
2023/06/08 00:09:41;;;;;;;9.63;3.85;;;;;;;;;;5080584;27;93196;-77
2023/06/08 00:12:07;;;;;;;8.82;3.60;;;;;;;;;;5070564;27;96335;-76
2023/06/08 00:14:35;;;;;;;8.80;3.22;;;;;;;;;;5078552;27;96092;-77
2023/06/08 00:17:04;;;;;;;8.68;3.45;;;;;;;;;;5069441;27;93098;-77
2023/06/08 00:19:32;;;;;;;9.68;3.58;;;;;;;;;;5067507;27;96950;-76
2023/06/08 00:22:08;;;;;;;10.52;3.42;;;;;;;;;;5071453;27;92436;-76
2023/06/08 00:24:35;;;;;;;8.50;3.50;;;;;;;;;;5082930;27;91999;-76
2023/06/08 00:27:03;;;;;;;7.40;3.42;;;;;;;;;;5073956;27;93664;-77
2023/06/08 00:29:29;;;;;;;;;;;;;;;;;;5083058;27;96438;-77
2023/06/08 00:31:55;;;;;;;8.68;3.20;;;;;;;;;;5066386;27;112176;-76
2023/06/08 00:34:22;;;;;;;10.40;3.70;;;;;;;;;;5086236;27;92434;-76
2023/06/08 00:36:49;;;;;;;7.32;3.20;;;;;;;;;;5068672;27;96103;-76
2023/06/08 00:39:16;;;;;;;8.32;3.30;;;;;;;;;;5065224;27;92064;-77
2023/06/08 00:41:42;;;;;;;7.65;3.40;;;;;;;;;;5066735;27;95216;-77
2023/06/08 00:44:09;;;;;;;8.57;3.85;;;;;;;;;;5068766;27;93965;-76
2023/06/08 00:46:36;;;;;;;10.10;3.75;;;;;;;;;;5068708;27;95331;-76
2023/06/08 00:49:07;;;;;;;8.20;3.40;;;;;;;;;;5081219;27;93397;-76
2023/06/08 00:51:38;;;;;;;7.95;3.30;;;;;;;;;;5078598;27;92757;-77
2023/06/08 00:54:06;;;;;;;8.60;3.55;;;;;;;;;;5069789;27;92248;-76
2023/06/08 00:56:34;;;;;;;10.23;4.20;;;;;;;;;;5070341;27;93282;-77
2023/06/08 00:59:00;;;;;;;;;;;;;;;;;;5073507;27;92510;-76
2023/06/08 01:01:29;;;;;;;9.07;3.60;;;;;;;;;;5068372;27;95239;-77
2023/06/08 01:04:05;;;;;;;10.40;3.63;;;;;;;;;;5068780;27;94283;-76
2023/06/08 01:06:39;;;;;;;8.20;3.33;;;;;;;;;;5069136;27;92948;-76
2023/06/08 01:09:12;;;;;;;7.95;3.35;;;;;;;;;;5079071;27;95131;-76
2023/06/08 01:11:42;;;;;;;8.57;3.35;;;;;;;;;;5073737;27;92418;-76
2023/06/08 01:14:13;;;;;;;8.68;3.75;;;;;;;;;;5076466;27;92440;-76
2023/06/08 01:16:44;;;;;;;9.15;3.63;;;;;;;;;;5071433;27;95502;-75
2023/06/08 01:19:17;;;;;;;8.40;3.42;;;;;;;;;;5071537;27;92285;-76
2023/06/08 01:22:08;;;;;;;8.43;3.60;;;;;;;;;;5077691;27;92021;-75
2023/06/08 01:24:36;;;;;;;12.88;3.70;;;;;;;;;;5073679;27;92005;-75
2023/06/08 01:27:08;;;;;;;12.98;3.40;;;;;;;;;;5069586;27;95272;-76
2023/06/08 01:29:35;;;;;;;10.35;3.83;;;;;;;;;;5074599;27;94710;-76
2023/06/08 01:32:01;;;;;;;9.77;3.47;;;;;;;;;;5071104;27;93388;-76
2023/06/08 01:34:28;;;;;;;12.68;3.80;;;;;;;;;;5071655;27;92847;-76
2023/06/08 01:37:04;;;;;;;11.45;4.20;;;;;;;;;;5071214;27;92739;-75
2023/06/08 01:40:00;;;;;;;10.73;4.13;;;;;;;;;;5081372;27;93091;-76
2023/06/08 01:42:27;;;;;;;10.13;3.75;;;;;;;;;;5050382;27;94496;-75
2023/06/08 01:45:00;;;;;;;11.30;3.72;;;;;;;;;;5079432;27;92926;-77
2023/06/08 01:47:35;;;;;;;8.77;3.90;;;;;;;;;;5074042;27;94225;-77
2023/06/08 01:50:03;;;;;;;12.32;3.88;;;;;;;;;;5084838;27;92954;-75
2023/06/08 01:52:30;;;;;;;11.02;4.60;;;;;;;;;;5092173;27;94561;-75
2023/06/08 01:54:57;;;;;;;10.77;3.70;;;;;;;;;;5076981;27;94800;-75
2023/06/08 01:57:23;;;;;;;11.65;4.28;;;;;;;;;;5072798;27;93870;-75
2023/06/08 01:59:50;;;;;;;16.60;4.35;;;;;;;;;;5063814;27;92384;-75
2023/06/08 02:02:17;;;;;;;14.95;4.00;;;;;;;;;;5079339;27;92844;-75
2023/06/08 02:04:44;;;;;;;11.55;4.38;;;;;;;;;;5082102;27;92705;-76
2023/06/08 02:07:11;;;;;;;8.75;3.75;;;;;;;;;;5077092;27;92193;-75
2023/06/08 02:09:40;;;;;;;10.93;4.10;;;;;;;;;;5080265;27;93952;-76
2023/06/08 02:12:07;;;;;;;10.77;3.78;;;;;;;;;;5079790;27;92227;-76
2023/06/08 02:14:34;;;;;;;9.95;3.97;;;;;;;;;;5081252;27;93970;-76
2023/06/08 02:17:03;;;;;;;11.68;4.50;;;;;;;;;;5075204;27;95554;-76
2023/06/08 02:19:33;;;;;;;9.43;3.75;;;;;;;;;;5078724;27;92741;-76
2023/06/08 02:21:59;;;;;;;10.00;3.90;;;;;;;;;;5069118;27;92910;-76
2023/06/08 02:24:26;;;;;;;9.88;4.20;;;;;;;;;;5078125;27;92790;-76
2023/06/08 02:26:52;;;;;;;10.38;3.85;;;;;;;;;;5074147;27;92516;-76
2023/06/08 02:29:19;;;;;;;10.55;4.20;;;;;;;;;;5079203;27;94288;-75
2023/06/08 02:31:46;;;;;;;12.05;4.18;;;;;;;;;;5071784;27;92974;-75
2023/06/08 02:34:12;;;;;;;12.73;4.00;;;;;;;;;;5073840;27;92394;-75
2023/06/08 02:36:39;;;;;;;10.90;4.03;;;;;;;;;;5069725;27;92642;-75
2023/06/08 02:39:07;;;;;;;10.38;4.38;;;;;;;;;;5093815;27;92429;-76
2023/06/08 02:41:34;;;;;;;10.98;4.22;;;;;;;;;;5075679;27;95606;-75
2023/06/08 02:44:00;;;;;;;8.63;3.80;;;;;;;;;;5071374;27;93263;-76
2023/06/08 02:46:27;;;;;;;12.20;4.28;;;;;;;;;;5065590;27;92980;-75
2023/06/08 02:48:54;;;;;;;12.23;4.47;;;;;;;;;;5074214;27;94315;-75
2023/06/08 02:51:23;;;;;;;10.18;4.40;;;;;;;;;;5059564;27;92184;-76
2023/06/08 02:53:50;;;;;;;10.60;4.10;;;;;;;;;;5071270;27;92416;-75
2023/06/08 02:56:16;;;;;;;10.35;3.88;;;;;;;;;;5067514;27;92983;-75
2023/06/08 02:58:46;;;;;;;11.20;4.28;;;;;;;;;;5071106;27;91903;-74
2023/06/08 03:01:16;;;;;;;14.45;4.82;;;;;;;;;;5066727;27;93791;-74
2023/06/08 03:04:04;;;;;;;12.50;4.65;;;;;;;;;;5080654;27;93126;-74
2023/06/08 03:06:36;;;;;;;11.25;4.13;;;;;;;;;;5074768;27;94590;-75
2023/06/08 03:09:07;;;;;;;12.32;4.43;;;;;;;;;;5066268;27;96983;-75
2023/06/08 03:11:36;;;;;;;11.27;4.07;;;;;;;;;;5079159;27;93080;-75
2023/06/08 03:14:05;;;;;;;10.10;4.15;;;;;;;;;;5071083;27;94834;-76
2023/06/08 03:16:35;;;;;;;11.45;4.70;;;;;;;;;;5066303;27;95886;-76
2023/06/08 03:19:03;;;;;;;11.57;4.15;;;;;;;;;;5066253;27;92188;-76
2023/06/08 03:21:31;;;;;;;10.85;4.25;;;;;;;;;;5077156;27;96731;-76
2023/06/08 03:23:58;;;;;;;11.32;3.92;;;;;;;;;;5056162;27;92045;-76
2023/06/08 03:26:26;;;;;;;9.98;3.88;;;;;;;;;;5077268;27;92183;-75
2023/06/08 03:28:54;;;;;;;11.38;4.25;;;;;;;;;;5076733;27;92761;-75
2023/06/08 03:31:22;;;;;;;10.30;4.10;;;;;;;;;;5075363;27;97291;-77
2023/06/08 03:33:51;;;;;;;10.27;4.38;;;;;;;;;;5076993;27;94089;-77
2023/06/08 03:36:18;;;;;;;10.82;4.45;;;;;;;;;;5063045;27;94891;-76
2023/06/08 03:38:45;;;;;;;9.88;4.22;;;;;;;;;;5068704;27;92402;-74
2023/06/08 03:41:15;;;;;;;10.57;4.47;;;;;;;;;;5064246;27;94805;-76
2023/06/08 03:43:45;;;;;;;10.10;4.20;;;;;;;;;;5068792;27;94780;-76
2023/06/08 03:46:12;;;;;;;9.80;4.30;;;;;;;;;;5078104;27;92642;-75
2023/06/08 03:48:40;;;;;;;10.75;4.20;;;;;;;;;;5068463;27;93809;-76
2023/06/08 03:51:07;;;;;;;9.48;4.30;;;;;;;;;;5061348;27;94905;-76
2023/06/08 03:53:35;;;;;;;11.57;4.80;;;;;;;;;;5071859;27;92486;-76
2023/06/08 03:56:03;;;;;;;11.40;4.68;;;;;;;;;;5080137;27;94630;-76
2023/06/08 03:58:32;;;;;;;11.15;4.57;;;;;;;;;;5070794;27;92147;-76
2023/06/08 04:00:59;;;;;;;10.27;4.70;;;;;;;;;;5078501;27;95708;-77
2023/06/08 04:03:27;;;;;;;11.25;4.47;;;;;;;;;;5075611;27;94997;-77
2023/06/08 04:05:54;;;;;;;10.13;4.75;;;;;;;;;;5077858;27;92297;-78
2023/06/08 04:08:21;;;;;;;11.95;4.82;;;;;;;;;;5074186;27;94352;-78
2023/06/08 04:10:49;;;;;;;10.25;4.65;;;;;;;;;;5074308;27;94104;-77
2023/06/08 04:13:15;;;;;;;12.32;4.65;;;;;;;;;;5073339;27;91384;-75
2023/06/08 04:15:43;;;;;;;11.45;4.93;;;;;;;;;;5080301;27;93854;-75
2023/06/08 04:18:11;;;;;;;11.90;4.78;;;;;;;;;;5075702;27;93442;-77
2023/06/08 04:20:40;;;;;;;10.13;5.03;;;;;;;;;;5066535;27;95125;-77
2023/06/08 04:23:06;;;;;;;10.45;4.70;;;;;;;;;;5067383;27;93192;-76
2023/06/08 04:25:33;;;;;;;12.43;5.00;;;;;;;;;;5062093;27;92071;-76
2023/06/08 04:28:00;;;;;;;9.98;4.32;;;;;;;;;;5070727;27;94345;-75
2023/06/08 04:30:28;;;;;;;14.30;4.78;;;;;;;;;;5058288;27;94957;-75
2023/06/08 04:32:55;;;;;;;14.68;5.30;;;;;;;;;;5067457;27;92432;-75
2023/06/08 04:35:22;;;;;;;12.45;5.00;;;;;;;;;;5067012;27;94952;-76
2023/06/08 04:37:49;;;;;;;15.13;5.57;;;;;;;;;;5069439;27;94036;-75
2023/06/08 04:40:16;;;;;;;15.13;5.13;;;;;;;;;;5081235;27;92432;-75
2023/06/08 04:42:44;;;;;;;13.30;5.28;;;;;;;;;;5069413;27;95320;-75
2023/06/08 04:45:11;;;;;;;10.93;4.95;;;;;;;;;;5069493;27;94452;-75
2023/06/08 04:47:41;;;;;;;12.98;4.70;;;;;;;;;;5072719;27;97038;-75
2023/06/08 04:50:08;;;;;;;11.40;5.18;;;;;;;;;;5070759;27;94040;-75
2023/06/08 04:52:40;;;;;;;12.60;5.22;;;;;;;;;;5071866;27;92130;-75
2023/06/08 04:55:09;;;;;;;13.20;5.65;;;;;;;;;;5079921;27;92083;-75
2023/06/08 04:57:36;;;;;;;11.93;6.03;;;;;;;;;;5069623;27;92772;-75
2023/06/08 05:00:06;;;;;;;11.60;5.10;;;;;;;;;;5077459;27;92181;-75
2023/06/08 05:02:35;;;;;;;9.40;4.75;;;;;;;;;;5067906;27;92643;-75
2023/06/08 05:05:02;;;;;;;;;;;;;;;;;;5069508;27;92521;-76
2023/06/08 05:07:29;;;;;;;11.75;5.90;;;;;;;;;;5065170;27;93376;-76
2023/06/08 05:09:57;;;;;;;11.07;5.10;;;;;;;;;;5078835;27;95069;-76
2023/06/08 05:12:23;;;;;;;13.25;5.47;;;;;;;;;;5077171;27;92261;-76
2023/06/08 05:14:50;;;;;;;13.35;5.55;;;;;;;;;;5078971;27;93834;-76
2023/06/08 05:17:16;;;;;;;12.45;5.30;;;;;;;;;;5078433;27;92797;-77
2023/06/08 05:19:43;;;;;;;13.65;5.43;;;;;;;;;;5076459;27;93036;-76
2023/06/08 05:22:09;;;;;;;13.77;5.93;;;;;;;;;;5082547;27;93032;-76
2023/06/08 05:24:36;;;;;;;13.60;5.85;;;;;;;;;;5072044;27;92240;-75
2023/06/08 05:27:02;;;;;;;11.55;5.55;;;;;;;;;;5074297;27;93002;-75
2023/06/08 05:29:29;;;;;;;11.98;5.88;;;;;;;;;;5069780;27;97837;-76
2023/06/08 05:31:56;;;;;;;11.73;5.03;;;;;;;;;;5078432;27;93507;-75
2023/06/08 05:34:22;;;;;;;12.60;5.25;;;;;;;;;;5061777;27;94607;-76
2023/06/08 05:36:49;;;;;;;10.05;5.32;;;;;;;;;;5072295;27;92670;-76
2023/06/08 05:39:16;;;;;;;;;;;;;;;;;;5069059;27;92090;-75
2023/06/08 05:41:43;;;;;;;13.85;5.72;;;;;;;;;;5078110;27;92210;-75
2023/06/08 05:44:09;;;;;;;14.00;5.68;;;;;;;;;;5071363;27;95177;-76
2023/06/08 05:46:36;;;;;;;10.70;5.15;;;;;;;;;;5084858;27;92382;-76
2023/06/08 05:49:02;;;;;;;13.55;5.45;;;;;;;;;;5073496;27;92984;-77
2023/06/08 05:51:29;;;;;;;10.73;5.30;;;;;;;;;;5074137;27;91555;-77
2023/06/08 05:53:55;;;;;;;11.23;5.00;;;;;;;;;;5075798;27;92203;-75
2023/06/08 05:56:22;;;;;;;13.48;5.25;;;;;;;;;;5073971;27;92058;-75
2023/06/08 05:58:48;;;;;;;11.95;5.10;;;;;;;;;;5082114;27;94441;-75
2023/06/08 06:01:17;;;;;;;11.02;5.15;;;;;;;;;;5083563;27;95027;-76
2023/06/08 06:03:43;;;;;;;10.23;4.45;;;;;;;;;;5074399;27;93342;-76
2023/06/08 06:06:11;;;;;;;10.43;4.80;;;;;;;;;;5084559;27;92279;-76
2023/06/08 06:08:37;;;;;;;;;;;;;;;;;;5082606;27;95124;-75
2023/06/08 06:11:06;;;;;;;13.52;5.28;;;;;;;;;;5082891;27;96644;-74
2023/06/08 06:13:32;;;;;;;11.32;5.07;;;;;;;;;;5063243;27;93358;-75
2023/06/08 06:15:59;;;;;;;10.70;5.07;;;;;;;;;;5062014;27;94750;-75
2023/06/08 06:18:25;;;;;;;12.90;5.07;;;;;;;;;;5063614;27;92680;-76
2023/06/08 06:20:52;;;;;;;12.77;5.20;;;;;;;;;;5065927;27;93687;-74
2023/06/08 06:23:18;;;;;;;13.77;4.55;;;;;;;;;;5059959;27;96311;-73
2023/06/08 06:25:45;;;;;;;9.20;4.43;;;;;;;;;;5063215;27;92248;-74
2023/06/08 06:28:12;;;;;;;9.35;4.07;;;;;;;;;;5069592;27;93438;-75
2023/06/08 06:30:38;;;;;;;8.95;4.00;;;;;;;;;;5073531;27;92405;-74
2023/06/08 06:33:05;;;;;;;9.05;3.90;;;;;;;;;;5068514;27;92452;-73
2023/06/08 06:35:31;;;;;;;10.60;4.10;;;;;;;;;;5078039;27;92709;-75
2023/06/08 06:37:58;;;;;;;13.27;4.43;;;;;;;;;;5066209;27;92479;-76
2023/06/08 06:40:25;;;;;;;10.68;4.15;;;;;;;;;;5072346;27;92812;-74
2023/06/08 06:42:51;;;;;;;11.23;4.18;;;;;;;;;;5077970;27;92728;-74
2023/06/08 06:45:28;;;;;;;13.05;4.40;;;;;;;;;;5078836;27;92484;-75
2023/06/08 06:47:55;;;;;;;9.68;3.90;;;;;;;;;;5072859;27;94454;-74
2023/06/08 06:50:21;;;;;;;15.40;4.50;;;;;;;;;;5065739;27;92554;-75
2023/06/08 06:52:48;;;;;;;10.43;3.80;;;;;;;;;;5072599;27;92819;-74
2023/06/08 06:55:15;;;;;;;9.90;4.25;;;;;;;;;;5072271;27;93405;-74
2023/06/08 06:57:42;;;;;;;11.05;4.07;;;;;;;;;;5080884;27;92202;-74
2023/06/08 07:00:10;;;;;;;8.80;4.15;;;;;;;;;;5069761;27;94910;-74
2023/06/08 07:02:38;;;;;;;10.68;4.07;;;;;;;;;;5061089;27;93949;-74
2023/06/08 07:05:06;;;;;;;11.25;4.32;;;;;;;;;;5063882;27;91646;-75
2023/06/08 07:07:33;;;;;;;9.02;3.95;;;;;;;;;;5061242;27;93147;-75
2023/06/08 07:10:01;;;;;;;9.55;4.00;;;;;;;;;;5070748;27;92367;-74
2023/06/08 07:12:29;;;;;;;10.15;4.10;;;;;;;;;;5080287;27;94949;-75
2023/06/08 07:14:56;;;;;;;9.27;4.05;;;;;;;;;;5080489;27;92961;-74
2023/06/08 07:17:22;;;;;;;10.13;3.63;;;;;;;;;;5081460;27;92538;-74
2023/06/08 07:19:51;;;;;;;8.15;3.60;;;;;;;;;;5071819;27;94067;-75
2023/06/08 07:22:18;;;;;;;7.95;3.53;;;;;;;;;;5062082;27;92991;-75
2023/06/08 07:25:05;;;;;;;9.35;4.30;;;;;;;;;;5062607;27;92050;-75
2023/06/08 07:27:52;;;;;;;8.07;3.35;;;;;;;;;;5062006;27;92155;-75
2023/06/08 07:30:18;;;;;;;13.02;3.90;;;;;;;;;;5073533;27;93142;-74
2023/06/08 07:32:45;;;;;;;11.43;3.53;;;;;;;;;;5075638;27;92252;-74
2023/06/08 07:35:12;;;;;;;7.45;3.45;;;;;;;;;;5069657;27;94962;-74
2023/06/08 07:37:38;;;;;;;7.65;3.85;;;;;;;;;;5080892;27;94666;-74
2023/06/08 07:40:07;;;;;;;9.68;3.63;;;;;;;;;;5083115;27;94556;-74
2023/06/08 07:42:34;;;;;;;9.30;4.10;;;;;;;;;;5081133;27;92085;-74
2023/06/08 07:45:01;;;;;;;7.30;3.35;;;;;;;;;;5083079;27;92015;-74
2023/06/08 07:47:27;;;;;;;7.25;3.35;;;;;;;;;;5075591;27;92725;-75
2023/06/08 07:49:55;;;;;;;9.18;3.55;;;;;;;;;;5076102;27;95096;-75
2023/06/08 07:52:22;;;;;;;10.32;3.50;;;;;;;;;;5072542;27;92541;-75
2023/06/08 07:54:48;;;;;;;10.57;4.20;;;;;;;;;;5075244;27;93054;-74
2023/06/08 07:57:15;;;;;;;10.18;3.63;;;;;;;;;;5062925;27;92155;-73
2023/06/08 07:59:41;;;;;;;9.65;3.70;;;;;;;;;;5081027;27;94652;-74
2023/06/08 08:02:09;;;;;;;12.30;3.10;;;;;;;;;;5068288;27;95139;-75
2023/06/08 08:04:36;;;;;;;8.10;3.33;;;;;;;;;;5061468;27;91967;-75
2023/06/08 08:07:04;;;;;;;11.95;3.53;;;;;;;;;;5072875;27;94832;-74
2023/06/08 08:09:33;;;;;;;9.40;4.07;;;;;;;;;;5062417;27;96771;-75
2023/06/08 08:11:59;;;;;;;17.90;5.65;;;;;;;;;;5062528;27;91918;-74
2023/06/08 08:14:26;;;;;;;15.38;5.55;;;;;;;;;;5074415;27;92426;-74
2023/06/08 08:16:53;;;;;;;12.35;4.88;;;;;;;;;;5065596;27;92706;-75
2023/06/08 08:19:20;;;;;;;;;;;;;;;;;;5063244;27;94654;-74
2023/06/08 08:21:46;;;;;;;8.05;3.35;;;;;;;;;;5068910;27;102825;-75
2023/06/08 08:24:13;;;;;;;11.25;4.10;;;;;;;;;;5081493;27;92452;-75
2023/06/08 08:26:43;;;;;;;8.77;3.88;;;;;;;;;;5077169;27;94555;-75
2023/06/08 08:29:09;;;;;;;9.40;4.20;;;;;;;;;;5078121;27;92526;-75
2023/06/08 08:31:36;;;;;;;9.00;4.03;;;;;;;;;;5060873;27;92137;-76
2023/06/08 08:34:03;;;;;;;10.18;4.28;;;;;;;;;;5076558;27;92700;-75
2023/06/08 08:36:30;;;;;;;11.00;4.47;;;;;;;;;;5079873;27;94046;-75
2023/06/08 08:38:57;;;;;;;10.63;4.00;;;;;;;;;;5069706;27;92083;-78
2023/06/08 08:41:26;;;;;;;10.23;4.63;;;;;;;;;;5060152;27;93100;-78
2023/06/08 08:43:56;;;;;;;9.88;4.72;;;;;;;;;;5064899;27;91621;-78
2023/06/08 08:46:23;;;;;;;9.90;4.32;;;;;;;;;;5066229;27;92265;-77
2023/06/08 08:48:50;;;;;;;9.23;4.50;;;;;;;;;;5069675;27;93638;-78
2023/06/08 08:51:20;;;;;;;10.85;4.40;;;;;;;;;;5060053;27;94604;-77
2023/06/08 08:53:48;;;;;;;9.52;4.45;;;;;;;;;;5062075;27;96520;-78
2023/06/08 08:56:18;;;;;;;11.15;4.50;;;;;;;;;;5060703;27;93352;-77
2023/06/08 08:58:46;;;;;;;10.68;4.68;;;;;;;;;;5064249;27;92487;-78
2023/06/08 09:01:13;;;;;;;12.77;4.70;;;;;;;;;;5067040;27;94591;-77
2023/06/08 09:03:40;;;;;;;10.13;4.40;;;;;;;;;;5080169;27;92202;-78
2023/06/08 09:06:07;;;;;;;10.85;4.45;;;;;;;;;;5061490;27;94146;-78
2023/06/08 09:08:33;;;;;;;11.68;4.70;;;;;;;;;;5065525;27;94431;-78
2023/06/08 09:11:04;;;;;;;8.90;4.30;;;;;;;;;;5064868;27;92281;-78
2023/06/08 09:13:31;;;;;;;10.25;4.47;;;;;;;;;;5064578;27;95931;-78
2023/06/08 09:16:11;;;;;;;11.20;4.68;;;;;;;;;;5062437;27;95406;-77
2023/06/08 09:18:38;;;;;;;10.02;4.32;;;;;;;;;;5068176;27;92189;-77
2023/06/08 09:21:24;;;;;;;10.48;4.00;;;;;;;;;;5075142;27;92832;-75
2023/06/08 09:24:06;;;;;;;10.77;4.10;;;;;;;;;;5064264;27;92469;-76
2023/06/08 09:26:38;;;;;;;9.63;4.70;;;;;;;;;;5063932;27;92777;-76
2023/06/08 09:29:06;;;;;;;9.95;4.57;;;;;;;;;;5063604;27;92728;-77
2023/06/08 09:31:34;;;;;;;11.60;4.70;;;;;;;;;;5063880;27;91984;-78
2023/06/08 09:34:05;;;;;;;13.43;4.93;;;;;;;;;;5073878;27;92742;-78
2023/06/08 09:36:35;;;;;;;10.52;4.32;;;;;;;;;;5084889;27;92669;-78
2023/06/08 09:39:06;;;;;;;9.70;4.40;;;;;;;;;;5066119;27;92323;-78
2023/06/08 09:41:39;;;;;;;10.93;4.43;;;;;;;;;;5073599;27;96585;-78
2023/06/08 09:44:17;;;;;;;9.55;4.30;;;;;;;;;;5069345;27;95825;-78
2023/06/08 09:46:46;;;;;;;10.27;4.38;;;;;;;;;;5068848;27;92730;-78
2023/06/08 09:49:14;;;;;;;10.98;4.18;;;;;;;;;;5072522;27;93216;-78
2023/06/08 09:51:45;;;;;;;11.43;4.22;;;;;;;;;;5082035;27;92399;-78
2023/06/08 09:54:13;;;;;;;12.13;4.70;;;;;;;;;;5073225;27;92319;-78
2023/06/08 09:56:44;;;;;;;8.73;4.32;;;;;;;;;;5081432;27;93036;-78
2023/06/08 09:59:13;;;;;;;10.15;4.47;;;;;;;;;;5084678;27;93082;-78
2023/06/08 10:01:46;;;;;;;9.95;4.70;;;;;;;;;;5066445;27;94944;-78
2023/06/08 10:04:18;;;;;;;10.52;4.47;;;;;;;;;;5081278;27;92610;-77
2023/06/08 10:06:46;;;;;;;10.95;4.43;;;;;;;;;;5085670;27;94749;-77
2023/06/08 10:09:14;;;;;;;11.35;4.20;;;;;;;;;;5067224;27;92774;-78
2023/06/08 10:11:41;;;;;;;8.75;4.05;;;;;;;;;;5063818;27;92208;-78
2023/06/08 10:14:08;;;;;;;10.52;4.65;;;;;;;;;;5066832;27;92965;-78
2023/06/08 10:16:35;;;;;;;8.45;4.13;;;;;;;;;;5084371;27;92883;-77
2023/06/08 10:19:02;;;;;;;;;;;;;;;;;;5075109;27;91949;-76
2023/06/08 10:21:29;;;;;;;9.43;4.20;;;;;;;;;;5065782;27;98222;-77
2023/06/08 10:23:56;;;;;;;10.13;4.13;;;;;;;;;;5074517;27;91921;-77
2023/06/08 10:26:23;;;;;;;;;;;;;;;;;;5082532;27;92333;-75
2023/06/08 10:29:22;;;;;;;10.18;4.25;;;;;;;;;;5086397;27;93359;-76
2023/06/08 10:31:49;;;;;;;8.75;4.38;;;;;;;;;;5067381;27;94727;-76
2023/06/08 10:34:17;;;;;;;9.20;4.10;;;;;;;;;;5077201;27;97422;-77
2023/06/08 10:36:44;;;;;;;10.07;4.32;;;;;;;;;;5077887;27;95102;-76
2023/06/08 10:39:12;;;;;;;9.90;4.15;;;;;;;;;;5081095;27;92118;-78
2023/06/08 10:41:39;;;;;;;10.07;4.00;;;;;;;;;;5073029;27;92827;-77
2023/06/08 10:44:22;;;;;;;8.90;3.75;;;;;;;;;;5080598;27;92811;-78
2023/06/08 10:46:54;;;;;;;8.25;3.85;;;;;;;;;;5080023;27;92622;-79
2023/06/08 10:49:21;;;;;;;8.63;3.53;;;;;;;;;;5079521;27;93287;-79
2023/06/08 10:51:53;;;;;;;8.30;3.65;;;;;;;;;;5072444;27;92900;-77
2023/06/08 10:54:23;;;;;;;8.98;3.40;;;;;;;;;;5067839;27;92355;-78
2023/06/08 10:56:52;;;;;;;7.93;3.45;;;;;;;;;;5059035;27;97891;-79
2023/06/08 10:59:39;;;;;;;7.40;3.22;;;;;;;;;;5062185;27;92370;-74
2023/06/08 11:02:06;;;;;;;8.13;3.60;;;;;;;;;;5069502;27;92920;-75
2023/06/08 11:04:34;;;;;;;7.40;3.22;;;;;;;;;;5069199;27;92668;-75
2023/06/08 11:07:17;;;;;;;7.60;3.00;;;;;;;;;;5062045;27;92141;-75
2023/06/08 11:09:46;;;;;;;7.90;3.25;;;;;;;;;;5066663;27;92311;-75
2023/06/08 11:12:13;;;;;;;8.25;3.17;;;;;;;;;;5063793;27;94024;-76
2023/06/08 11:14:39;;;;;;;9.07;3.35;;;;;;;;;;5086651;27;91483;-76
2023/06/08 11:17:06;;;;;;;7.25;3.30;;;;;;;;;;5081441;27;92707;-77
2023/06/08 11:19:32;;;;;;;8.07;3.17;;;;;;;;;;5067313;27;92813;-76
2023/06/08 11:21:59;;;;;;;7.25;3.10;;;;;;;;;;5065679;27;94437;-76
2023/06/08 11:24:27;;;;;;;7.63;3.08;;;;;;;;;;5082649;27;93334;-75
2023/06/08 11:26:59;;;;;;;7.45;3.00;;;;;;;;;;5082496;27;92346;-75
2023/06/08 11:29:31;;;;;;;6.47;3.28;;;;;;;;;;5080228;27;97287;-75
2023/06/08 11:32:08;;;;;;;11.25;4.22;;;;;;;;;;5077382;27;93071;-76
2023/06/08 11:34:37;;;;;;;10.10;4.07;;;;;;;;;;5070390;27;91964;-76
2023/06/08 11:37:04;;;;;;;9.63;3.88;;;;;;;;;;5082147;27;93081;-75
2023/06/08 11:39:33;;;;;;;12.52;4.18;;;;;;;;;;5082876;27;91830;-76
2023/06/08 11:42:00;;;;;;;10.98;4.20;;;;;;;;;;5064879;27;94187;-76
2023/06/08 11:44:27;;;;;;;10.23;4.28;;;;;;;;;;5062356;27;93341;-76
2023/06/08 11:46:53;;;;;;;9.57;3.70;;;;;;;;;;5060022;27;94675;-76
2023/06/08 11:49:20;;;;;;;9.35;4.32;;;;;;;;;;5061088;27;94979;-76
2023/06/08 11:51:47;;;;;;;11.98;4.00;;;;;;;;;;5063884;27;93061;-76
2023/06/08 11:54:15;;;;;;;9.82;4.28;;;;;;;;;;5064647;27;92108;-76
2023/06/08 11:56:45;;;;;;;10.70;4.53;;;;;;;;;;5078250;27;92491;-76
2023/06/08 11:59:15;;;;;;;12.07;4.20;;;;;;;;;;5069911;27;92176;-75
2023/06/08 12:01:58;;;;;;;9.93;4.25;;;;;;;;;;5073710;27;93015;-75
2023/06/08 12:04:32;;;;;;;11.65;4.28;;;;;;;;;;5074523;27;92020;-75
2023/06/08 12:07:07;;;;;;;10.63;4.28;;;;;;;;;;5076923;27;93077;-76
2023/06/08 12:09:34;;;;;;;11.07;4.20;;;;;;;;;;5070444;27;96511;-75
2023/06/08 12:12:10;;;;;;;10.27;3.90;;;;;;;;;;5071990;27;95702;-74
2023/06/08 12:14:46;;;;;;;9.13;3.85;;;;;;;;;;5076692;27;92454;-75
2023/06/08 12:17:16;;;;;;;10.90;3.95;;;;;;;;;;5080291;27;92759;-75
2023/06/08 12:19:47;;;;;;;10.82;3.85;;;;;;;;;;5072878;27;93243;-75
2023/06/08 12:22:13;;;;;;;13.48;4.00;;;;;;;;;;5072716;27;92509;-75
2023/06/08 12:24:40;;;;;;;9.43;3.92;;;;;;;;;;5077133;27;92996;-75
2023/06/08 12:27:07;;;;;;;9.50;3.70;;;;;;;;;;5080541;27;92031;-74
2023/06/08 12:29:34;;;;;;;8.50;3.50;;;;;;;;;;5073798;27;92234;-75
2023/06/08 12:32:00;;;;;;;8.35;3.50;;;;;;;;;;5066293;27;92476;-76
2023/06/08 12:34:27;;;;;;;8.52;3.30;;;;;;;;;;5070962;27;92798;-76
2023/06/08 12:36:53;;;;;;;10.68;3.42;;;;;;;;;;5062991;27;94716;-75
2023/06/08 12:39:20;;;;;;;10.18;3.40;;;;;;;;;;5076871;27;93207;-75
2023/06/08 12:41:49;;;;;;;8.90;3.20;;;;;;;;;;5075246;27;93630;-75
2023/06/08 12:44:16;;;;;;;6.65;3.30;;;;;;;;;;5075106;27;93015;-76
2023/06/08 12:46:43;;;;;;;7.93;3.30;;;;;;;;;;5078725;27;92669;-75
2023/06/08 12:49:09;;;;;;;8.25;3.28;;;;;;;;;;5075290;27;94330;-75
2023/06/08 12:51:37;;;;;;;7.32;3.03;;;;;;;;;;5073328;27;92729;-75
2023/06/08 12:54:03;;;;;;;7.10;3.22;;;;;;;;;;5072102;27;91895;-75
2023/06/08 12:56:30;;;;;;;6.38;3.10;;;;;;;;;;5077400;27;92625;-75
2023/06/08 12:58:56;;;;;;;7.97;3.40;;;;;;;;;;5081201;27;92069;-75
2023/06/08 13:01:23;;;;;;;9.63;3.10;;;;;;;;;;5072092;27;94581;-75
2023/06/08 13:03:50;;;;;;;9.48;3.58;;;;;;;;;;5075285;27;94832;-75
2023/06/08 13:06:16;;;;;;;8.15;3.33;;;;;;;;;;5074763;27;92527;-75
2023/06/08 13:08:43;;;;;;;9.88;3.80;;;;;;;;;;5070850;27;92343;-75
2023/06/08 13:11:09;;;;;;;11.02;3.97;;;;;;;;;;5075406;27;93393;-75
2023/06/08 13:13:36;;;;;;;13.68;4.05;;;;;;;;;;5075005;27;92046;-75
2023/06/08 13:16:04;;;;;;;10.35;3.95;;;;;;;;;;5078107;27;92791;-75
2023/06/08 13:18:32;;;;;;;12.30;3.97;;;;;;;;;;5076379;27;91959;-75
2023/06/08 13:20:58;;;;;;;11.95;4.13;;;;;;;;;;5076443;27;92659;-74
2023/06/08 13:23:25;;;;;;;9.65;3.95;;;;;;;;;;5070003;27;92349;-76
2023/06/08 13:25:52;;;;;;;8.20;3.55;;;;;;;;;;5064316;27;94461;-76
2023/06/08 13:28:18;;;;;;;8.35;3.67;;;;;;;;;;5075117;27;95175;-75
2023/06/08 13:30:45;;;;;;;8.95;3.83;;;;;;;;;;5071153;27;93778;-75
2023/06/08 13:33:11;;;;;;;8.82;4.10;;;;;;;;;;5074950;27;92171;-76
2023/06/08 13:35:38;;;;;;;9.80;4.07;;;;;;;;;;5077558;27;92379;-75
2023/06/08 13:38:04;;;;;;;8.05;3.60;;;;;;;;;;5079180;27;93175;-75
2023/06/08 13:40:36;;;;;;;10.48;3.78;;;;;;;;;;5066389;27;92151;-75
2023/06/08 13:43:03;;;;;;;8.00;3.72;;;;;;;;;;5068818;27;92750;-74
2023/06/08 13:45:30;;;;;;;7.88;3.88;;;;;;;;;;5065882;27;97870;-76
2023/06/08 13:47:56;;;;;;;9.60;4.10;;;;;;;;;;5065790;27;92333;-76
2023/06/08 13:50:24;;;;;;;13.27;3.92;;;;;;;;;;5061504;27;96578;-76
2023/06/08 13:52:50;;;;;;;;;;;;;;;;;;5069374;27;92269;-75
2023/06/08 13:55:17;;;;;;;10.50;4.13;;;;;;;;;;5070790;27;111940;-74
2023/06/08 13:57:43;;;;;;;;;;;;;;;;;;5073100;27;92735;-74
2023/06/08 14:00:10;;;;;;;8.82;3.78;;;;;;;;;;5075815;27;108753;-75
2023/06/08 14:02:38;;;;;;;9.77;4.25;;;;;;;;;;5074962;27;92794;-75
2023/06/08 14:05:04;;;;;;;;;;;;;;;;;;5074230;27;93114;-76
2023/06/08 14:07:31;;;;;;;10.80;4.45;;;;;;;;;;5079277;27;91394;-74
2023/06/08 14:09:59;;;;;;;9.70;4.32;;;;;;;;;;5067294;27;92607;-75
2023/06/08 14:12:26;;;;;;;10.00;4.35;;;;;;;;;;5069072;27;92227;-76
2023/06/08 14:14:52;;;;;;;8.63;4.00;;;;;;;;;;5074253;27;94551;-74
2023/06/08 14:17:19;;;;;;;12.52;4.07;;;;;;;;;;5065750;27;93827;-74
2023/06/08 14:19:46;;;;;;;9.27;4.13;;;;;;;;;;5071916;27;92528;-74
2023/06/08 14:22:13;;;;;;;10.18;4.03;;;;;;;;;;5064356;27;92549;-74
2023/06/08 14:24:40;;;;;;;9.35;4.05;;;;;;;;;;5068664;27;93379;-74
2023/06/08 14:27:06;;;;;;;8.93;3.90;;;;;;;;;;5066381;27;92190;-75
2023/06/08 14:29:33;;;;;;;8.68;4.10;;;;;;;;;;5068460;27;95143;-75
2023/06/08 14:32:00;;;;;;;10.13;4.15;;;;;;;;;;5078161;27;91771;-75
2023/06/08 14:34:26;;;;;;;9.48;4.40;;;;;;;;;;5078939;27;92039;-74
2023/06/08 14:36:53;;;;;;;11.15;4.30;;;;;;;;;;5077019;27;92888;-75
2023/06/08 14:39:19;;;;;;;9.43;4.07;;;;;;;;;;5070735;27;94774;-75
2023/06/08 14:41:46;;;;;;;9.82;3.85;;;;;;;;;;5066639;27;95388;-74
2023/06/08 14:44:12;;;;;;;9.68;4.15;;;;;;;;;;5073616;27;92824;-74
2023/06/08 14:46:39;;;;;;;10.23;3.85;;;;;;;;;;5066555;27;92372;-74